createdAt,value
2022-11-20T00:03:33.057Z,3.40
2022-11-20T00:06:08.496Z,3.70
2022-11-20T00:08:36.871Z,2.77
2022-11-20T00:11:16.812Z,2.97
2022-11-20T00:13:51.554Z,3.70
2022-11-20T00:16:35.649Z,3.40
2022-11-20T00:24:55.641Z,3.03
2022-11-20T00:27:34.357Z,2.25
2022-11-20T00:33:18.361Z,2.90
2022-11-20T00:41:41.318Z,3.67
2022-11-20T00:44:22.016Z,3.23
2022-11-20T00:46:58.847Z,2.77
2022-11-20T00:49:54.509Z,3.17
2022-11-20T00:52:24.532Z,2.57
2022-11-20T00:55:09.392Z,2.70
2022-11-20T00:57:42.261Z,3.77
2022-11-20T01:00:12.502Z,4.40
2022-11-20T01:02:39.965Z,2.80
2022-11-20T01:05:15.372Z,2.38
2022-11-20T01:07:46.023Z,3.90
2022-11-20T01:10:28.600Z,3.07
2022-11-20T01:13:20.232Z,4.00
2022-11-20T01:15:55.604Z,4.63
2022-11-20T01:18:32.266Z,3.63
2022-11-20T01:21:09.252Z,3.17
2022-11-20T01:23:38.494Z,4.23
2022-11-20T01:26:10.114Z,3.37
2022-11-20T01:28:41.090Z,3.40
2022-11-20T01:31:25.565Z,2.43
2022-11-20T01:34:24.019Z,3.37
2022-11-20T01:36:58.297Z,2.47
2022-11-20T01:39:27.701Z,4.07
2022-11-20T01:42:24.374Z,3.67
2022-11-20T01:45:00.571Z,3.53
2022-11-20T01:47:44.957Z,3.27
2022-11-20T01:50:28.448Z,3.53
2022-11-20T01:53:15.138Z,3.30
2022-11-20T01:55:57.093Z,4.17
2022-11-20T01:58:37.689Z,3.80
2022-11-20T02:01:08.885Z,3.73
2022-11-20T02:03:45.887Z,2.97
2022-11-20T02:06:27.054Z,3.67
2022-11-20T02:08:58.750Z,2.60
2022-11-20T02:11:26.185Z,4.03
2022-11-20T02:14:17.044Z,3.47
2022-11-20T02:17:00.631Z,3.57
2022-11-20T02:19:35.482Z,3.90
2022-11-20T02:22:59.361Z,3.47
2022-11-20T02:25:37.214Z,3.97
2022-11-20T02:28:10.532Z,4.73
2022-11-20T02:33:34.316Z,3.37
2022-11-20T02:36:14.408Z,3.72
2022-11-20T02:38:44.966Z,4.17
2022-11-20T02:41:24.509Z,4.80
2022-11-20T02:44:16.037Z,3.70
2022-11-20T02:47:07.789Z,3.17
2022-11-20T02:50:01.753Z,2.77
2022-11-20T02:53:05.189Z,2.40
2022-11-20T02:56:04.569Z,3.10
2022-11-20T02:58:39.606Z,1.87
2022-11-20T03:01:17.630Z,3.60
2022-11-20T03:06:49.300Z,2.97
2022-11-20T03:09:29.097Z,3.20
2022-11-20T03:12:17.985Z,2.50
2022-11-20T03:14:56.438Z,2.60
2022-11-20T03:17:26.100Z,2.57
2022-11-20T03:20:02.306Z,3.70
2022-11-20T03:22:47.841Z,2.57
2022-11-20T03:25:21.092Z,3.73
2022-11-20T03:27:59.076Z,3.30
2022-11-20T03:33:36.724Z,3.73
2022-11-20T03:36:08.677Z,3.77
2022-11-20T03:39:02.454Z,3.57
2022-11-20T03:41:36.213Z,2.97
2022-11-20T03:44:28.290Z,3.00
2022-11-20T03:47:07.778Z,2.93
2022-11-20T03:49:59.608Z,3.33
2022-11-20T03:52:45.294Z,4.27
2022-11-20T03:55:55.593Z,3.90
2022-11-20T03:58:44.386Z,3.90
2022-11-20T04:04:47.310Z,2.37
2022-11-20T04:07:46.660Z,3.63
2022-11-20T04:10:42.234Z,3.60
2022-11-20T04:20:51.444Z,3.20
2022-11-20T04:23:54.429Z,3.50
2022-11-20T04:27:18.853Z,3.33
2022-11-20T04:31:03.501Z,2.70
2022-11-20T04:48:33.010Z,3.67
2022-11-20T04:54:39.438Z,3.90
2022-11-20T04:57:38.980Z,3.60
2022-11-20T05:00:21.193Z,3.00
2022-11-20T05:03:04.536Z,1.57
2022-11-20T05:06:11.035Z,2.70
2022-11-20T05:08:54.229Z,3.07
2022-11-20T05:11:40.599Z,4.17
2022-11-20T05:14:34.117Z,2.53
2022-11-20T05:18:48.907Z,2.63
2022-11-20T05:21:43.643Z,4.60
2022-11-20T05:24:31.443Z,3.40
2022-11-20T05:27:07.127Z,3.30
2022-11-20T05:33:39.324Z,4.45
2022-11-20T05:36:43.821Z,3.90
2022-11-20T05:39:13.602Z,3.90
2022-11-20T05:41:40.663Z,4.10
2022-11-20T05:44:18.032Z,4.53
2022-11-20T05:46:50.774Z,3.60
2022-11-20T05:49:36.243Z,3.77
2022-11-20T05:52:09.202Z,3.40
2022-11-20T05:54:37.357Z,3.67
2022-11-20T05:57:08.869Z,3.40
2022-11-20T05:59:39.156Z,3.67
2022-11-20T06:02:15.376Z,3.57
2022-11-20T06:04:46.098Z,2.77
2022-11-20T06:07:13.996Z,4.13
2022-11-20T06:09:44.486Z,3.40
2022-11-20T06:12:14.976Z,3.87
2022-11-20T06:14:45.397Z,4.30
2022-11-20T06:17:15.497Z,5.30
2022-11-20T06:19:45.500Z,4.50
2022-11-20T06:22:15.348Z,4.33
2022-11-20T06:24:42.788Z,4.33
2022-11-20T06:27:11.879Z,3.93
2022-11-20T06:29:46.828Z,3.95
2022-11-20T06:32:18.197Z,3.70
2022-11-20T06:34:54.846Z,4.17
2022-11-20T06:37:36.072Z,4.10
2022-11-20T06:42:31.030Z,6.10
2022-11-20T06:45:01.300Z,3.67
2022-11-20T06:47:31.539Z,5.20
2022-11-20T06:50:04.670Z,3.80
2022-11-20T06:52:40.876Z,3.37
2022-11-20T06:55:14.196Z,4.17
2022-11-20T06:57:41.678Z,4.50
2022-11-20T07:00:14.722Z,5.20
2022-11-20T07:02:45.400Z,3.67
2022-11-20T07:05:13.462Z,4.23
2022-11-20T07:07:44.029Z,3.83
2022-11-20T07:10:20.183Z,4.37
2022-11-20T07:14:18.466Z,3.80
2022-11-20T07:17:18.800Z,4.10
2022-11-20T07:19:55.639Z,4.80
2022-11-20T07:25:38.029Z,4.03
2022-11-20T07:28:17.229Z,4.03
2022-11-20T07:30:56.563Z,4.50
2022-11-20T07:33:36.734Z,4.37
2022-11-20T07:36:21.230Z,4.03
2022-11-20T07:39:01.851Z,4.60
2022-11-20T07:41:35.823Z,4.63
2022-11-20T07:44:21.761Z,4.03
2022-11-20T07:46:58.569Z,4.37
2022-11-20T07:49:33.853Z,4.00
2022-11-20T07:52:30.595Z,4.57
2022-11-20T07:55:06.535Z,3.80
2022-11-20T07:57:35.061Z,4.77
2022-11-20T08:00:06.369Z,4.27
2022-11-20T08:02:42.377Z,5.03
2022-11-20T08:05:11.016Z,3.90
2022-11-20T08:07:43.025Z,5.60
2022-11-20T08:10:12.550Z,5.47
2022-11-20T08:13:09.617Z,5.40
2022-11-20T08:15:37.570Z,6.70
2022-11-20T08:18:29.922Z,6.93
2022-11-20T08:20:52.657Z,7.27
2022-11-20T08:23:19.558Z,6.40
2022-11-20T08:25:50.840Z,6.43
2022-11-20T08:28:21.250Z,6.73
2022-11-20T08:30:51.179Z,8.02
2022-11-20T08:33:19.286Z,6.53
2022-11-20T08:35:46.887Z,6.70
2022-11-20T08:38:14.342Z,6.13
2022-11-20T08:40:41.469Z,6.60
2022-11-20T08:43:08.340Z,4.63
2022-11-20T08:45:35.727Z,6.83
2022-11-20T08:48:03.518Z,6.83
2022-11-20T08:50:33.170Z,5.77
2022-11-20T08:53:05.006Z,4.80
2022-11-20T08:55:32.060Z,4.93
2022-11-20T08:57:59.098Z,5.40
2022-11-20T09:00:29.092Z,4.67
2022-11-20T09:02:56.061Z,4.67
2022-11-20T09:05:22.961Z,5.80
2022-11-20T09:07:49.981Z,5.93
2022-11-20T09:10:24.192Z,6.90
2022-11-20T09:12:56.383Z,6.37
2022-11-20T09:15:24.738Z,7.30
2022-11-20T09:18:01.924Z,7.10
2022-11-20T09:20:30.584Z,7.97
2022-11-20T09:22:58.702Z,6.20
2022-11-20T09:25:34.634Z,7.20
2022-11-20T09:28:01.716Z,5.03
2022-11-20T09:30:28.815Z,4.97
2022-11-20T09:32:55.939Z,6.07
2022-11-20T09:35:25.848Z,7.93
2022-11-20T09:37:52.794Z,3.93
2022-11-20T09:40:29.360Z,5.20
2022-11-20T09:43:18.338Z,6.00
2022-11-20T09:46:23.905Z,6.30
2022-11-20T09:49:12.761Z,7.57
2022-11-20T09:51:59.082Z,6.37
2022-11-20T09:54:38.769Z,5.33
2022-11-20T09:57:22.848Z,4.67
2022-11-20T10:00:06.711Z,6.17
2022-11-20T10:02:48.589Z,5.43
2022-11-20T10:05:23.799Z,5.70
2022-11-20T10:08:24.922Z,6.60
2022-11-20T10:11:12.991Z,5.57
2022-11-20T10:14:04.879Z,6.10
2022-11-20T10:16:45.180Z,7.50
2022-11-20T10:19:36.659Z,6.57
2022-11-20T10:22:28.538Z,4.77
2022-11-20T10:25:05.164Z,6.57
2022-11-20T10:28:03.334Z,6.43
2022-11-20T10:30:32.108Z,5.17
2022-11-20T10:33:06.414Z,5.73
2022-11-20T10:35:46.098Z,8.13
2022-11-20T10:38:39.730Z,6.43
2022-11-20T10:41:26.049Z,7.57
2022-11-20T10:44:13.057Z,6.50
2022-11-20T10:46:49.184Z,5.83
2022-11-20T10:49:19.329Z,7.53
2022-11-20T10:51:49.428Z,5.00
2022-11-20T10:54:28.397Z,4.17
2022-11-20T10:57:04.104Z,5.67
2022-11-20T10:59:45.459Z,5.90
2022-11-20T11:02:26.600Z,5.68
2022-11-20T11:04:54.895Z,6.00
2022-11-20T11:07:37.624Z,6.00
2022-11-20T11:10:18.589Z,6.47
2022-11-20T11:12:48.674Z,5.97
2022-11-20T11:15:39.929Z,6.60
2022-11-20T11:18:11.017Z,6.07
2022-11-20T11:20:38.640Z,6.80
2022-11-20T11:23:05.746Z,7.70
2022-11-20T11:25:37.424Z,7.70
2022-11-20T11:28:20.614Z,7.73
2022-11-20T11:30:51.914Z,8.60
2022-11-20T11:33:27.444Z,8.90
2022-11-20T11:36:19.294Z,7.80
2022-11-20T11:38:46.272Z,9.13
2022-11-20T11:41:18.628Z,10.32
2022-11-20T11:44:36.446Z,6.35
2022-11-20T11:47:06.066Z,10.30
2022-11-20T11:49:33.056Z,8.87
2022-11-20T11:52:09.147Z,8.77
2022-11-20T11:54:56.057Z,7.22
2022-11-20T11:57:38.510Z,7.60
2022-11-20T12:00:14.404Z,9.27
2022-11-20T12:02:44.124Z,9.32
2022-11-20T12:05:28.694Z,8.00
2022-11-20T12:08:12.355Z,11.03
2022-11-20T12:11:04.395Z,9.27
2022-11-20T12:13:57.005Z,7.07
2022-11-20T12:16:26.535Z,7.53
2022-11-20T12:18:54.175Z,7.10
2022-11-20T12:21:32.183Z,7.85
2022-11-20T12:24:12.546Z,7.20
2022-11-20T12:27:10.397Z,8.18
2022-11-20T12:30:15.045Z,8.68
2022-11-20T12:32:42.023Z,7.23
2022-11-20T12:35:23.907Z,8.80
2022-11-20T12:38:12.611Z,8.57
2022-11-20T12:41:00.672Z,8.80
2022-11-20T12:43:57.138Z,9.83
2022-11-20T12:46:29.817Z,19.93
2022-11-20T12:52:22.094Z,14.07
2022-11-20T12:55:14.675Z,10.93
2022-11-20T12:58:04.819Z,9.10
2022-11-20T13:00:35.379Z,8.45
2022-11-20T13:03:37.902Z,9.52
2022-11-20T13:06:16.725Z,8.98
2022-11-20T13:08:57.061Z,8.05
2022-11-20T13:11:42.599Z,9.75
2022-11-20T13:14:46.745Z,9.85
2022-11-20T13:17:32.528Z,9.20
2022-11-20T13:20:00.295Z,8.35
2022-11-20T13:22:43.846Z,9.55
2022-11-20T13:25:16.361Z,9.90
2022-11-20T13:30:20.054Z,7.45
2022-11-20T13:32:57.632Z,9.68
2022-11-20T13:35:27.687Z,8.23
2022-11-20T13:38:20.937Z,8.23
2022-11-20T13:40:58.314Z,9.57
2022-11-20T13:43:43.418Z,9.60
2022-11-20T13:46:11.100Z,13.27
2022-11-20T13:48:47.057Z,10.30
2022-11-20T13:51:40.086Z,13.75
2022-11-20T13:54:34.344Z,12.38
2022-11-20T13:57:07.297Z,10.73
2022-11-20T13:59:34.407Z,11.73
2022-11-20T14:02:02.246Z,14.50
2022-11-20T14:04:36.358Z,10.80
2022-11-20T14:07:10.201Z,10.32
2022-11-20T14:09:37.226Z,21.65
2022-11-20T14:12:15.330Z,14.65
2022-11-20T14:14:51.218Z,16.02
2022-11-20T14:17:36.020Z,13.30
2022-11-20T14:20:07.211Z,17.15
2022-11-20T14:22:34.376Z,16.83
2022-11-20T14:25:19.256Z,15.40
2022-11-20T14:27:53.444Z,14.65
2022-11-20T14:30:26.113Z,11.80
2022-11-20T14:35:35.405Z,12.05
2022-11-20T14:38:03.987Z,12.50
2022-11-20T14:40:33.886Z,12.45
2022-11-20T14:43:01.035Z,15.52
2022-11-20T14:45:28.761Z,12.65
2022-11-20T14:47:58.707Z,10.05
2022-11-20T14:50:28.335Z,9.27
2022-11-20T14:53:00.449Z,10.40
2022-11-20T14:55:39.551Z,8.63
2022-11-20T14:58:21.097Z,11.88
2022-11-20T15:00:59.866Z,13.07
2022-11-20T15:03:35.455Z,7.47
2022-11-20T15:06:06.888Z,8.73
2022-11-20T15:08:35.006Z,8.65
2022-11-20T15:11:02.311Z,8.48
2022-11-20T15:13:40.031Z,10.13
2022-11-20T15:16:20.510Z,7.93
2022-11-20T15:18:48.394Z,10.00
2022-11-20T15:21:18.030Z,8.20
2022-11-20T15:23:45.206Z,11.35
2022-11-20T15:26:19.521Z,9.23
2022-11-20T15:28:50.882Z,8.32
2022-11-20T15:31:21.735Z,8.95
2022-11-20T15:33:48.947Z,9.93
2022-11-20T15:36:15.881Z,8.98
2022-11-20T15:38:42.917Z,11.75
2022-11-20T15:41:10.042Z,8.75
2022-11-20T15:43:36.992Z,10.98
2022-11-20T15:46:12.120Z,10.80
2022-11-20T15:48:53.991Z,9.85
2022-11-20T15:51:43.884Z,10.30
2022-11-20T15:54:12.295Z,10.32
2022-11-20T15:56:39.703Z,10.13
2022-11-20T15:59:06.852Z,10.93
2022-11-20T16:01:34.120Z,10.27
2022-11-20T16:04:02.252Z,13.20
2022-11-20T16:06:29.202Z,11.13
2022-11-20T16:08:56.044Z,7.65
2022-11-20T16:11:23.070Z,10.20
2022-11-20T16:14:08.760Z,9.95
2022-11-20T16:16:38.786Z,10.18
2022-11-20T16:19:06.113Z,12.80
2022-11-20T16:21:33.306Z,12.90
2022-11-20T16:24:02.156Z,13.82
2022-11-20T16:26:29.904Z,11.45
2022-11-20T16:28:57.429Z,13.77
2022-11-20T16:31:24.495Z,13.00
2022-11-20T16:33:59.320Z,11.88
2022-11-20T16:36:28.493Z,16.33
2022-11-20T16:38:57.104Z,13.38
2022-11-20T16:41:28.853Z,13.93
2022-11-20T16:43:58.259Z,13.70
2022-11-20T16:46:27.626Z,10.07
2022-11-20T16:48:56.972Z,13.10
2022-11-20T16:51:30.755Z,17.35
2022-11-20T16:54:00.795Z,14.20
2022-11-20T16:58:59.715Z,14.80
2022-11-20T17:01:28.829Z,16.08
2022-11-20T17:03:58.504Z,15.55
2022-11-20T17:06:28.163Z,20.48
2022-11-20T17:08:56.755Z,16.05
2022-11-20T17:11:24.737Z,13.65
2022-11-20T17:13:54.603Z,12.45
2022-11-20T17:16:23.717Z,14.15
2022-11-20T17:18:50.980Z,13.50
2022-11-20T17:21:19.358Z,13.07
2022-11-20T17:23:47.441Z,11.68
2022-11-20T17:26:20.329Z,13.40
2022-11-20T17:28:52.902Z,11.45
2022-11-20T17:31:19.860Z,10.27
2022-11-20T17:33:47.648Z,15.48
2022-11-20T17:36:17.073Z,15.10
2022-11-20T17:38:44.556Z,11.90
2022-11-20T17:41:19.962Z,14.75
2022-11-20T17:43:47.098Z,15.13
2022-11-20T17:46:24.099Z,13.57
2022-11-20T17:48:51.732Z,18.25
2022-11-20T17:51:26.977Z,14.95
2022-11-20T17:53:57.416Z,17.23
2022-11-20T17:56:42.876Z,14.60
2022-11-20T17:59:18.907Z,14.65
2022-11-20T18:01:49.865Z,14.48
2022-11-20T18:04:47.921Z,16.05
2022-11-20T18:07:15.092Z,11.88
2022-11-20T18:09:42.203Z,13.30
2022-11-20T18:12:09.188Z,12.75
2022-11-20T18:14:43.782Z,12.07
2022-11-20T18:17:13.171Z,14.13
2022-11-20T18:20:07.285Z,15.07
2022-11-20T18:23:07.836Z,14.70
2022-11-20T18:25:34.887Z,17.77
2022-11-20T18:28:02.035Z,19.63
2022-11-20T18:30:29.048Z,19.25
2022-11-20T18:33:00.480Z,18.02
2022-11-20T18:35:30.920Z,18.35
2022-11-20T18:38:05.579Z,19.65
2022-11-20T18:40:45.655Z,18.48
2022-11-20T18:43:32.544Z,16.38
2022-11-20T18:46:04.307Z,13.70
2022-11-20T18:48:42.838Z,15.55
2022-11-20T18:51:16.314Z,20.00
2022-11-20T18:54:09.379Z,14.90
2022-11-20T18:59:08.792Z,15.43
2022-11-20T19:01:49.114Z,15.40
2022-11-20T19:04:25.621Z,15.60
2022-11-20T19:06:56.282Z,19.25
2022-11-20T19:09:26.940Z,15.73
2022-11-20T19:11:54.240Z,14.93
2022-11-20T19:14:21.395Z,12.38
2022-11-20T19:16:48.557Z,11.98
2022-11-20T19:19:15.776Z,9.82
2022-11-20T19:21:42.817Z,12.98
2022-11-20T19:24:12.306Z,16.55
2022-11-20T19:26:39.762Z,18.05
2022-11-20T19:29:07.363Z,14.15
2022-11-20T19:31:34.799Z,13.73
2022-11-20T19:34:03.971Z,11.05
2022-11-20T19:36:39.143Z,11.68
2022-11-20T19:39:10.876Z,12.32
2022-11-20T19:41:40.037Z,10.60
2022-11-20T19:44:12.825Z,11.80
2022-11-20T19:49:41.917Z,9.75
2022-11-20T19:52:11.570Z,12.30
2022-11-20T19:54:41.473Z,10.35
2022-11-20T19:57:08.480Z,10.48
2022-11-20T19:59:35.519Z,11.05
2022-11-20T20:02:03.614Z,12.40
2022-11-20T20:04:30.671Z,17.98
2022-11-20T20:06:57.625Z,17.98
2022-11-20T20:09:26.883Z,16.15
2022-11-20T20:11:54.742Z,17.17
2022-11-20T20:14:22.003Z,18.85
2022-11-20T20:16:49.937Z,14.57
2022-11-20T20:19:17.374Z,15.48
2022-11-20T20:21:44.672Z,15.27
2022-11-20T20:24:12.080Z,16.63
2022-11-20T20:26:39.027Z,14.88
2022-11-20T20:29:06.033Z,12.98
2022-11-20T20:31:33.782Z,13.68
2022-11-20T20:34:03.453Z,14.13
2022-11-20T20:36:33.945Z,13.77
2022-11-20T20:39:03.914Z,13.95
2022-11-20T20:41:31.242Z,13.02
2022-11-20T20:44:17.063Z,11.68
2022-11-20T20:46:44.009Z,11.90
2022-11-20T20:49:11.035Z,10.13
2022-11-20T20:51:39.842Z,12.20
2022-11-20T20:54:10.287Z,9.37
2022-11-20T20:56:38.431Z,10.02
2022-11-20T20:59:06.459Z,10.45
2022-11-20T21:01:33.655Z,8.95
2022-11-20T21:04:00.753Z,9.32
2022-11-20T21:06:27.827Z,9.68
2022-11-20T21:08:57.508Z,9.48
2022-11-20T21:11:24.909Z,7.95
2022-11-20T21:13:53.314Z,9.45
2022-11-20T21:16:24.689Z,9.35
2022-11-20T21:18:51.729Z,12.23
2022-11-20T21:21:40.000Z,12.00
2022-11-20T21:24:07.588Z,11.75
2022-11-20T21:26:34.718Z,9.63
2022-11-20T21:29:01.684Z,10.40
2022-11-20T21:31:30.123Z,11.20
2022-11-20T21:33:57.400Z,7.72
2022-11-20T21:36:29.179Z,9.10
2022-11-20T21:39:00.380Z,12.77
2022-11-20T21:41:32.346Z,10.65
2022-11-20T21:47:18.255Z,11.38
2022-11-20T21:49:46.860Z,11.13
2022-11-20T21:52:16.989Z,10.50
2022-11-20T21:54:44.220Z,11.02
2022-11-20T21:57:11.405Z,11.63
2022-11-20T21:59:38.711Z,9.80
2022-11-20T22:02:05.900Z,11.05
2022-11-20T22:04:40.576Z,11.88
2022-11-20T22:07:08.238Z,9.65
2022-11-20T22:09:35.335Z,9.57
2022-11-20T22:12:02.309Z,11.15
2022-11-20T22:14:29.319Z,10.98
2022-11-20T22:16:58.670Z,9.52
2022-11-20T22:19:25.770Z,10.65
2022-11-20T22:21:52.932Z,11.93
2022-11-20T22:24:21.990Z,10.10
2022-11-20T22:26:50.139Z,10.85
2022-11-20T22:29:22.054Z,10.02
2022-11-20T22:31:59.192Z,9.35
2022-11-20T22:34:26.542Z,9.18
2022-11-20T22:36:56.463Z,9.90
2022-11-20T22:39:26.431Z,8.90
2022-11-20T22:41:56.538Z,10.05
2022-11-20T22:44:26.727Z,9.43
2022-11-20T22:46:55.882Z,7.35
2022-11-20T22:49:22.950Z,10.30
2022-11-20T22:51:50.000Z,9.85
2022-11-20T22:54:17.018Z,9.73
2022-11-20T22:56:45.070Z,10.60
2022-11-20T22:59:12.489Z,10.80
2022-11-20T23:01:39.772Z,8.98
2022-11-20T23:04:28.074Z,10.45
2022-11-20T23:06:57.171Z,8.35
2022-11-20T23:09:27.180Z,11.50
2022-11-20T23:12:03.423Z,12.18
2022-11-20T23:17:25.348Z,11.70
2022-11-20T23:20:08.418Z,11.15
2022-11-20T23:22:59.674Z,11.02
2022-11-20T23:25:31.855Z,9.70
2022-11-20T23:28:06.833Z,12.27
2022-11-20T23:30:33.918Z,9.65
2022-11-20T23:33:00.901Z,10.80
2022-11-20T23:35:27.842Z,11.20
2022-11-20T23:41:25.961Z,10.00
2022-11-20T23:44:39.493Z,12.40
2022-11-20T23:50:22.018Z,9.98
2022-11-20T23:53:08.321Z,7.78
2022-11-20T23:56:07.332Z,8.70
